Big Bear City, CA

8:04 AM PDT on April 29, 2017 (GMT -0700)
Big Bear City

Weather History for KL35 - December, 2012

Change the Weather History Date:

Monday, December 17, 2012

  Actual Average (KBUO) Record (KBUO)
Temperature  
Mean Temperature 38 °F -  
Max Temperature 48 °F 60 °F 77 °F (1998)
Min Temperature 28 °F 41 °F 39 °F (1997)
Degree Days  
Heating Degree Days 27    
Moisture  
Dew Point 30 °F    
Average Humidity 83    
Maximum Humidity 93    
Minimum Humidity 43    
Precipitation  
Precipitation 0.00 in - - ()
Sea Level Pressure  
Sea Level Pressure 30.08 in    
Wind  
Wind Speed 7 mph (WSW)    
Max Wind Speed 14 mph    
Max Gust Speed 18 mph    
Visibility 10 miles    
Events      
Averages and records for this station are not official NWS values.
T = Trace of Precipitation, MM = Missing Value Source: NWS Daily Summary

Daily Weather History Graph

Daily Weather History Graph

Search for Another Location

Airport or City:

Trip Planner

Search our weather history database for the weather conditions in past years. The results will help you decide how hot, cold, wet, or windy it might be!

Date:

Astronomy

Dec. 17, 2012 Rise Set
Actual Time 6:47 AM PST 4:40 PM PST
Civil Twilight 6:19 AM PST 5:07 PM PST
Nautical Twilight 5:48 AM PST 5:39 PM PST
Astronomical Twilight 5:17 AM PST 6:09 PM PST
Moon 10:09 AM PST (12/17) 9:54 PM PST (12/17)
Length of Visible Light 10h 48m
Length of Day
9h 52m
Waxing Crescent, 26% of the Moon is Illuminated
Dec 17
Waxing Crescent
Dec 19
First Quarter
Dec 28
Full
Jan 4
Last Quarter
Jan 11
New

Hourly Weather History & Observations

Time (PST) Temp. Windchill Dew Point Humidity Pressure Visibility Wind Dir Wind Speed Gust Speed Precip Events Conditions
12:15 AM 28.4 °F - 26.6 °F 93% 30.13 in 10.0 mi Calm Calm - N/A   Scattered Clouds
12:35 AM 28.4 °F 24.6 °F 26.6 °F 93% 30.12 in 10.0 mi SW 3.5 mph - N/A   Scattered Clouds
12:55 AM 28.4 °F 23.3 °F 26.6 °F 93% 30.12 in 7.0 mi SW 4.6 mph - N/A   Clear
1:15 AM 28.4 °F - 26.6 °F 93% 30.12 in 7.0 mi Calm Calm - N/A   Clear
1:35 AM 28.4 °F 24.6 °F 26.6 °F 93% 30.12 in 7.0 mi WSW 3.5 mph - N/A   Clear
1:55 AM 30.2 °F 25.4 °F 28.4 °F 93% 30.13 in 10.0 mi SW 4.6 mph - N/A   Clear
2:15 AM 30.2 °F - 28.4 °F 93% 30.12 in 10.0 mi Calm Calm - N/A   Clear
2:35 AM 30.2 °F 26.7 °F 26.6 °F 86% 30.12 in 10.0 mi WNW 3.5 mph - N/A   Clear
2:55 AM 32.0 °F 24.2 °F 30.2 °F 93% 30.12 in 10.0 mi WSW 9.2 mph - N/A   Clear
3:15 AM 33.8 °F 27.0 °F 30.2 °F 87% 30.12 in 10.0 mi WSW 8.1 mph - N/A   Clear
3:35 AM 33.8 °F 27.0 °F 30.2 °F 87% 30.12 in 10.0 mi WSW 8.1 mph - N/A   Clear
4:15 AM 32.0 °F 25.6 °F 30.2 °F 93% 30.11 in 10.0 mi WSW 6.9 mph - N/A   Clear
4:35 AM 32.0 °F 24.8 °F 30.2 °F 93% 30.11 in 10.0 mi WSW 8.1 mph - N/A   Clear
4:55 AM 32.0 °F 24.8 °F 30.2 °F 93% 30.11 in 10.0 mi WSW 8.1 mph - N/A   Clear
5:15 AM 32.0 °F 22.5 °F 30.2 °F 93% 30.12 in 10.0 mi West 12.7 mph - N/A   Scattered Clouds
5:35 AM 32.0 °F 24.2 °F 30.2 °F 93% 30.12 in 10.0 mi West 9.2 mph - N/A   Scattered Clouds
5:55 AM 32.0 °F 24.2 °F 30.2 °F 93% 30.12 in 10.0 mi West 9.2 mph - N/A   Clear
6:15 AM 32.0 °F 24.2 °F 30.2 °F 93% 30.12 in 10.0 mi West 9.2 mph - N/A   Clear
6:35 AM 32.0 °F 24.8 °F 30.2 °F 93% 30.12 in 10.0 mi WSW 8.1 mph - N/A   Clear
6:55 AM 32.0 °F 23.6 °F 30.2 °F 93% 30.13 in 10.0 mi WSW 10.4 mph - N/A   Clear
7:15 AM 32.0 °F 24.8 °F 30.2 °F 93% 30.14 in 10.0 mi WSW 8.1 mph - N/A   Clear
7:35 AM 32.0 °F 24.2 °F 30.2 °F 93% 30.14 in 10.0 mi West 9.2 mph - N/A   Clear
7:55 AM 33.8 °F 29.6 °F 32.0 °F 93% 30.14 in 10.0 mi WSW 4.6 mph - N/A   Clear
8:15 AM 35.6 °F 30.7 °F 32.0 °F 87% 30.14 in 10.0 mi WSW 5.8 mph - N/A   Clear
8:35 AM 37.4 °F 31.4 °F 32.0 °F 81% 30.14 in 10.0 mi West 8.1 mph - N/A   Clear
8:55 AM 37.4 °F 30.3 °F 32.0 °F 81% 30.14 in 10.0 mi West 10.4 mph - N/A   Clear
9:15 AM 39.2 °F 32.5 °F 32.0 °F 75% 30.14 in 10.0 mi West 10.4 mph - N/A   Clear
9:35 AM 41.0 °F 35.2 °F 32.0 °F 70% 30.14 in 10.0 mi West 9.2 mph - N/A   Clear
9:55 AM 41.0 °F 35.2 °F 32.0 °F 70% 30.14 in 10.0 mi West 9.2 mph - N/A   Clear
10:15 AM 42.8 °F 36.6 °F 32.0 °F 66% 30.14 in 10.0 mi West 11.5 mph 16.1 mph N/A   Clear
10:35 AM 42.8 °F 36.2 °F 32.0 °F 66% 30.15 in 10.0 mi West 12.7 mph 18.4 mph N/A   Clear
10:55 AM 42.8 °F 36.2 °F 32.0 °F 66% 30.14 in 10.0 mi West 12.7 mph 18.4 mph N/A   Clear
11:15 AM 42.8 °F 35.8 °F 33.8 °F 70% 30.13 in 10.0 mi West 13.8 mph - N/A   Clear
11:35 AM 42.8 °F 35.8 °F 33.8 °F 70% 30.12 in 10.0 mi West 13.8 mph - N/A   Clear
11:55 AM 42.8 °F 36.2 °F 33.8 °F 70% 30.11 in 10.0 mi West 12.7 mph - N/A   Clear
12:15 PM 44.6 °F 39.2 °F 32.0 °F 61% 30.09 in 10.0 mi West 10.4 mph - N/A   Clear
12:35 PM 46.4 °F 41.1 °F 28.4 °F 50% 30.08 in 10.0 mi West 11.5 mph 17.3 mph N/A   Clear
12:55 PM 46.4 °F 41.5 °F 26.6 °F 46% 30.07 in 10.0 mi West 10.4 mph - N/A   Clear
1:15 PM 46.4 °F 41.9 °F 26.6 °F 46% 30.07 in 10.0 mi West 9.2 mph - N/A   Clear
1:35 PM 48.2 °F - 26.6 °F 43% 30.06 in 10.0 mi WSW 8.1 mph - N/A   Clear
1:55 PM 48.2 °F - 26.6 °F 43% 30.06 in 10.0 mi West 11.5 mph - N/A   Clear
4:35 PM 41.0 °F 38.0 °F 30.2 °F 65% 30.03 in 10.0 mi WSW 4.6 mph - N/A   Clear
4:55 PM 41.0 °F 37.1 °F 30.2 °F 65% 30.04 in 10.0 mi WSW 5.8 mph - N/A   Clear
5:15 PM 35.6 °F 29.2 °F 32.0 °F 87% 30.03 in 10.0 mi West 8.1 mph - N/A   Clear
5:35 PM 33.8 °F 29.6 °F 32.0 °F 93% 30.03 in 1.2 mi WSW 4.6 mph - N/A   Scattered Clouds
5:55 PM 33.8 °F 29.6 °F 32.0 °F 93% 30.03 in 3.0 mi WSW 4.6 mph - N/A   Scattered Clouds
6:15 PM 33.8 °F 24.3 °F 32.0 °F 93% 30.03 in 5.0 mi West 13.8 mph - N/A   Mostly Cloudy
6:35 PM 33.8 °F 24.3 °F 32.0 °F 93% 30.03 in 7.0 mi West 13.8 mph - N/A   Mostly Cloudy
6:55 PM 33.8 °F 25.3 °F 32.0 °F 93% 30.03 in 10.0 mi West 11.5 mph 18.4 mph N/A   Scattered Clouds
7:15 PM 33.8 °F 26.4 °F 32.0 °F 93% 30.03 in 10.0 mi West 9.2 mph - N/A   Clear
7:35 PM 33.8 °F 25.8 °F 32.0 °F 93% 30.03 in 10.0 mi WNW 10.4 mph - N/A   Scattered Clouds
7:55 PM 33.8 °F 25.8 °F 32.0 °F 93% 30.04 in 10.0 mi West 10.4 mph - N/A   Scattered Clouds
8:15 PM 33.8 °F 25.3 °F 30.2 °F 87% 30.03 in 10.0 mi West 11.5 mph - N/A   Clear
8:35 PM 33.8 °F 26.4 °F 30.2 °F 87% 30.03 in 10.0 mi West 9.2 mph - N/A   Clear
8:55 PM 33.8 °F 25.8 °F 30.2 °F 87% 30.02 in 10.0 mi West 10.4 mph - N/A   Clear
9:15 PM 33.8 °F 26.4 °F 30.2 °F 87% 30.02 in 10.0 mi West 9.2 mph - N/A   Scattered Clouds
9:35 PM 33.8 °F 25.8 °F 30.2 °F 87% 30.02 in 10.0 mi WSW 10.4 mph - N/A   Scattered Clouds
9:55 PM 33.8 °F 26.4 °F 30.2 °F 87% 30.01 in 10.0 mi WSW 9.2 mph 16.1 mph N/A   Mostly Cloudy
10:15 PM 33.8 °F 27.7 °F 30.2 °F 87% 30.01 in 10.0 mi WSW 6.9 mph 17.3 mph N/A   Scattered Clouds
10:35 PM 33.8 °F 25.8 °F 30.2 °F 87% 30.00 in 10.0 mi SW 10.4 mph 18.4 mph N/A   Scattered Clouds
10:55 PM 32.0 °F 23.0 °F 28.4 °F 87% 30.00 in 10.0 mi WSW 11.5 mph - N/A   Clear
11:15 PM 32.0 °F 22.1 °F 28.4 °F 87% 30.00 in 10.0 mi West 13.8 mph 17.3 mph N/A   Clear
11:35 PM 33.8 °F 26.4 °F 30.2 °F 87% 30.00 in 10.0 mi WSW 9.2 mph - N/A   Scattered Clouds
11:55 PM 33.8 °F 27.0 °F 30.2 °F 87% 29.99 in 10.0 mi WSW 8.1 mph 18.4 mph N/A   Mostly Cloudy